createdAt,value
2017-11-05T00:00:05.018Z,31.40
2017-11-05T00:00:42.844Z,31.77
2017-11-05T00:01:20.827Z,31.00
2017-11-05T00:01:58.888Z,30.33
2017-11-05T00:02:37.087Z,29.20
2017-11-05T00:03:15.350Z,31.60
2017-11-05T00:03:53.178Z,30.05
2017-11-05T00:04:31.197Z,31.77
2017-11-05T00:05:09.668Z,30.25
2017-11-05T00:05:46.228Z,30.92
2017-11-05T00:06:23.825Z,30.92
2017-11-05T00:07:01.965Z,30.00
2017-11-05T00:07:39.845Z,30.80
2017-11-05T00:08:17.885Z,31.17
2017-11-05T00:08:56.507Z,30.62
2017-11-05T00:09:34.644Z,29.90
2017-11-05T00:10:11.523Z,31.67
2017-11-05T00:10:49.341Z,31.08
2017-11-05T00:11:27.031Z,33.10
2017-11-05T00:12:04.995Z,31.52
2017-11-05T00:12:42.978Z,29.80
2017-11-05T00:13:20.878Z,32.17
2017-11-05T00:13:59.417Z,31.80
2017-11-05T00:14:37.279Z,31.75
2017-11-05T00:15:15.413Z,31.70
2017-11-05T00:15:53.686Z,31.42
2017-11-05T00:16:31.945Z,29.45
2017-11-05T00:17:09.694Z,30.60
2017-11-05T00:17:46.284Z,31.00
2017-11-05T00:18:24.483Z,31.37
2017-11-05T00:19:03.858Z,31.45
2017-11-05T00:19:41.844Z,30.20
2017-11-05T00:20:20.126Z,31.58
2017-11-05T00:20:58.036Z,30.77
2017-11-05T00:21:35.850Z,32.47
2017-11-05T00:22:13.994Z,31.30
2017-11-05T00:22:51.983Z,31.20
2017-11-05T00:23:29.974Z,32.25
2017-11-05T00:24:08.417Z,29.77
2017-11-05T00:24:45.979Z,30.88
2017-11-05T00:25:23.970Z,31.83
2017-11-05T00:26:01.726Z,31.75
2017-11-05T00:26:39.723Z,30.90
2017-11-05T00:27:17.749Z,30.52
2017-11-05T00:27:55.717Z,31.62
2017-11-05T00:28:33.829Z,32.15
2017-11-05T00:29:12.077Z,29.87
2017-11-05T00:29:49.229Z,30.55
2017-11-05T00:30:26.120Z,30.75
2017-11-05T00:31:02.915Z,31.70
2017-11-05T00:31:39.972Z,29.23
2017-11-05T00:32:16.649Z,30.37
2017-11-05T00:32:52.585Z,31.27
2017-11-05T00:33:28.642Z,30.60
2017-11-05T00:34:04.894Z,29.80
2017-11-05T00:34:41.006Z,30.75
2017-11-05T00:35:16.848Z,31.17
2017-11-05T00:35:52.086Z,32.00
2017-11-05T00:36:29.180Z,30.05
2017-11-05T00:37:04.424Z,30.83
2017-11-05T00:37:39.910Z,30.98
2017-11-05T00:38:15.651Z,30.10
2017-11-05T00:38:52.345Z,31.35
2017-11-05T00:39:28.152Z,32.15
2017-11-05T00:40:04.529Z,29.98
2017-11-05T00:40:40.425Z,34.10
2017-11-05T00:41:16.303Z,30.73
2017-11-05T00:41:52.469Z,30.80
2017-11-05T00:42:28.428Z,31.65
2017-11-05T00:43:06.327Z,30.80
2017-11-05T00:43:45.230Z,30.98
2017-11-05T00:44:23.223Z,31.67
2017-11-05T00:45:01.169Z,31.62
2017-11-05T00:45:39.850Z,32.03
2017-11-05T00:46:18.034Z,31.58
2017-11-05T00:46:55.937Z,31.10
2017-11-05T00:47:33.913Z,30.77
2017-11-05T00:48:12.228Z,31.08
2017-11-05T00:48:50.227Z,31.52
2017-11-05T00:49:27.977Z,31.80
2017-11-05T00:50:06.286Z,30.42
2017-11-05T00:50:44.474Z,31.10
2017-11-05T00:51:22.318Z,33.13
2017-11-05T00:52:00.397Z,33.58
2017-11-05T00:52:38.716Z,30.20
2017-11-05T00:53:16.323Z,31.90
2017-11-05T00:53:54.108Z,31.67
2017-11-05T00:54:31.480Z,31.58
2017-11-05T00:55:09.207Z,29.65
2017-11-05T00:55:47.469Z,31.25
2017-11-05T00:56:25.700Z,31.05
2017-11-05T00:57:03.268Z,30.83
2017-11-05T00:57:41.449Z,31.27
2017-11-05T00:58:19.265Z,30.75
2017-11-05T00:58:56.585Z,31.75
2017-11-05T00:59:34.297Z,30.37
2017-11-05T01:00:12.425Z,30.35
2017-11-05T01:00:50.496Z,29.77
2017-11-05T01:01:28.673Z,31.95
2017-11-05T01:02:06.700Z,30.30
2017-11-05T01:02:44.817Z,30.25
2017-11-05T01:03:22.910Z,30.17
2017-11-05T01:04:01.143Z,30.08
2017-11-05T01:04:39.204Z,30.15
2017-11-05T01:05:16.102Z,31.65
2017-11-05T01:05:54.090Z,30.35
2017-11-05T01:06:32.049Z,30.85
2017-11-05T01:07:10.005Z,31.62
2017-11-05T01:07:48.175Z,30.62
2017-11-05T01:08:26.281Z,30.50
2017-11-05T01:09:04.193Z,29.67
2017-11-05T01:09:42.267Z,31.80
2017-11-05T01:10:20.626Z,30.88
2017-11-05T01:10:59.157Z,30.58
2017-11-05T01:11:37.174Z,30.42
2017-11-05T01:12:14.098Z,28.35
2017-11-05T01:12:52.222Z,29.95
2017-11-05T01:13:30.152Z,29.85
2017-11-05T01:14:08.281Z,31.00
2017-11-05T01:14:46.249Z,29.92
2017-11-05T01:15:24.380Z,31.52
2017-11-05T01:16:03.233Z,29.55
2017-11-05T01:16:41.580Z,30.30
2017-11-05T01:17:19.732Z,29.90
2017-11-05T01:17:57.921Z,31.48
2017-11-05T01:18:34.915Z,31.60
2017-11-05T01:19:12.864Z,30.25
2017-11-05T01:19:50.853Z,30.95
2017-11-05T01:20:29.031Z,30.33
2017-11-05T01:21:08.057Z,30.67
2017-11-05T01:21:46.362Z,32.08
2017-11-05T01:22:24.758Z,30.42
2017-11-05T01:23:02.679Z,32.38
2017-11-05T01:23:40.788Z,30.45
2017-11-05T01:24:18.850Z,29.92
2017-11-05T01:24:56.866Z,32.58
2017-11-05T01:25:34.997Z,29.60
2017-11-05T01:26:13.788Z,29.98
2017-11-05T01:26:51.594Z,28.98
2017-11-05T01:27:29.519Z,32.53
2017-11-05T01:28:07.414Z,31.77
2017-11-05T01:28:45.204Z,30.85
2017-11-05T01:29:23.357Z,29.30
2017-11-05T01:30:01.417Z,30.40
2017-11-05T01:30:39.439Z,29.85
2017-11-05T01:31:18.139Z,29.48
2017-11-05T01:31:56.137Z,28.92
2017-11-05T01:32:34.189Z,30.42
2017-11-05T01:33:12.232Z,29.25
2017-11-05T01:33:50.397Z,29.42
2017-11-05T01:34:28.510Z,30.55
2017-11-05T01:35:06.612Z,27.65
2017-11-05T01:35:44.791Z,29.42
2017-11-05T01:36:23.435Z,30.15
2017-11-05T01:37:01.674Z,30.37
2017-11-05T01:37:38.651Z,30.45
2017-11-05T01:38:16.569Z,32.28
2017-11-05T01:38:54.753Z,28.92
2017-11-05T01:39:33.009Z,31.00
2017-11-05T01:40:11.341Z,29.67
2017-11-05T01:40:49.534Z,28.58
2017-11-05T01:41:28.003Z,30.40
2017-11-05T01:42:06.013Z,29.77
2017-11-05T01:42:44.111Z,30.00
2017-11-05T01:43:22.210Z,30.37
2017-11-05T01:44:00.173Z,28.87
2017-11-05T01:44:38.060Z,30.50
2017-11-05T01:45:16.185Z,30.80
2017-11-05T01:45:54.085Z,29.87
2017-11-05T01:46:32.452Z,30.02
2017-11-05T01:47:10.472Z,29.42
2017-11-05T01:47:47.306Z,29.10
2017-11-05T01:48:25.063Z,31.00
2017-11-05T01:49:03.147Z,29.08
2017-11-05T01:49:39.815Z,29.83
2017-11-05T01:50:17.516Z,29.15
2017-11-05T01:50:55.572Z,31.23
2017-11-05T01:51:33.213Z,28.15
2017-11-05T01:52:10.046Z,28.95
2017-11-05T01:52:47.036Z,28.17
2017-11-05T01:53:23.245Z,27.77
2017-11-05T01:53:59.204Z,29.92
2017-11-05T01:54:35.238Z,29.27
2017-11-05T01:55:11.276Z,28.60
2017-11-05T01:55:47.849Z,29.25
2017-11-05T01:56:23.692Z,28.55
2017-11-05T01:56:59.882Z,27.58
2017-11-05T01:57:35.965Z,28.75
2017-11-05T01:58:12.216Z,29.17
2017-11-05T01:58:48.361Z,29.50
2017-11-05T01:59:24.623Z,29.08
2017-11-05T02:00:00.535Z,29.58
2017-11-05T02:00:36.422Z,29.92
2017-11-05T02:01:12.662Z,29.85
2017-11-05T02:01:48.762Z,28.20
2017-11-05T02:02:25.019Z,28.83
2017-11-05T02:03:01.052Z,27.55
2017-11-05T02:03:36.943Z,29.55
2017-11-05T02:04:12.795Z,27.65
2017-11-05T02:04:49.038Z,28.05
2017-11-05T02:05:24.977Z,28.50
2017-11-05T02:06:01.314Z,26.87
2017-11-05T02:06:37.344Z,28.87
2017-11-05T02:07:13.291Z,27.98
2017-11-05T02:07:49.377Z,27.65
2017-11-05T02:08:25.272Z,28.10
2017-11-05T02:09:01.455Z,29.95
2017-11-05T02:09:37.340Z,27.85
2017-11-05T02:10:13.296Z,28.40
2017-11-05T02:10:49.520Z,29.45
2017-11-05T02:11:25.414Z,28.50
2017-11-05T02:12:01.562Z,27.55
2017-11-05T02:12:37.609Z,29.42
2017-11-05T02:13:13.625Z,28.25
2017-11-05T02:13:49.666Z,29.75
2017-11-05T02:14:25.591Z,28.27
2017-11-05T02:15:01.782Z,28.33
2017-11-05T02:15:37.733Z,28.50
2017-11-05T02:16:13.587Z,28.62
2017-11-05T02:16:49.593Z,28.17
2017-11-05T02:17:25.638Z,29.10
2017-11-05T02:18:01.505Z,27.75
2017-11-05T02:18:37.520Z,27.60
2017-11-05T02:19:13.587Z,28.02
2017-11-05T02:19:49.437Z,27.92
2017-11-05T02:20:25.587Z,26.85
2017-11-05T02:21:01.615Z,27.25
2017-11-05T02:21:37.482Z,28.60
2017-11-05T02:22:14.349Z,27.90
2017-11-05T02:22:49.749Z,29.48
2017-11-05T02:23:25.633Z,28.27
2017-11-05T02:24:01.929Z,29.40
2017-11-05T02:24:37.584Z,28.02
2017-11-05T02:25:13.255Z,27.98
2017-11-05T02:25:49.181Z,28.70
2017-11-05T02:26:25.000Z,28.27
2017-11-05T02:27:00.633Z,28.15
2017-11-05T02:27:36.477Z,28.35
2017-11-05T02:28:12.125Z,26.65
2017-11-05T02:28:47.890Z,28.38
2017-11-05T02:29:24.198Z,28.17
2017-11-05T02:29:59.960Z,27.15
2017-11-05T02:30:35.732Z,28.45
2017-11-05T02:31:11.927Z,25.90
2017-11-05T02:31:47.542Z,29.27
2017-11-05T02:32:23.417Z,27.67
2017-11-05T02:33:00.062Z,28.10
2017-11-05T02:33:35.828Z,27.05
2017-11-05T02:34:11.125Z,26.67
2017-11-05T02:34:47.378Z,26.17
2017-11-05T02:35:23.113Z,28.05
2017-11-05T02:35:58.883Z,29.65
2017-11-05T02:36:34.387Z,27.33
2017-11-05T02:37:10.273Z,27.25
2017-11-05T02:37:46.824Z,29.40
2017-11-05T02:38:22.752Z,28.10
2017-11-05T02:38:58.306Z,27.60
2017-11-05T02:39:33.908Z,26.92
2017-11-05T02:40:09.757Z,29.30
2017-11-05T02:40:45.764Z,27.13
2017-11-05T02:41:21.623Z,28.33
2017-11-05T02:41:57.358Z,28.75
2017-11-05T02:42:33.480Z,29.60
2017-11-05T02:43:10.089Z,27.20
2017-11-05T02:43:47.865Z,28.17
2017-11-05T02:44:25.823Z,28.45
2017-11-05T02:45:03.953Z,27.52
2017-11-05T02:45:42.416Z,27.58
2017-11-05T02:46:20.670Z,27.98
2017-11-05T02:46:58.821Z,26.25
2017-11-05T02:47:36.433Z,27.73
2017-11-05T02:48:14.325Z,28.55
2017-11-05T02:48:52.222Z,27.62
2017-11-05T02:49:29.760Z,28.35
2017-11-05T02:50:07.855Z,29.05
2017-11-05T02:50:46.308Z,28.62
2017-11-05T02:51:23.984Z,28.85
2017-11-05T02:52:02.208Z,27.60
2017-11-05T02:52:40.313Z,29.02
2017-11-05T02:53:18.322Z,28.77
2017-11-05T02:53:56.485Z,27.87
2017-11-05T02:54:33.344Z,28.35
2017-11-05T02:55:11.296Z,28.33
2017-11-05T02:55:49.688Z,27.45
2017-11-05T02:56:27.826Z,28.95
2017-11-05T02:57:05.986Z,28.15
2017-11-05T02:57:44.231Z,27.85
2017-11-05T02:58:22.449Z,29.08
2017-11-05T02:59:00.953Z,29.25
2017-11-05T02:59:39.183Z,26.20
2017-11-05T03:00:17.017Z,27.45
2017-11-05T03:00:55.845Z,26.60
2017-11-05T03:01:34.179Z,28.87
2017-11-05T03:02:12.061Z,28.70
2017-11-05T03:02:50.138Z,27.87
2017-11-05T03:03:28.237Z,28.35
2017-11-05T03:04:06.309Z,28.92
2017-11-05T03:04:44.551Z,28.60
2017-11-05T03:05:22.781Z,27.17
2017-11-05T03:06:01.271Z,28.02
2017-11-05T03:06:39.281Z,29.12
2017-11-05T03:07:17.267Z,26.62
2017-11-05T03:07:55.273Z,27.33
2017-11-05T03:08:33.696Z,27.52
2017-11-05T03:09:11.942Z,28.08
2017-11-05T03:09:48.906Z,27.48
2017-11-05T03:10:27.239Z,27.05
2017-11-05T03:11:05.922Z,29.37
2017-11-05T03:11:43.786Z,27.55
2017-11-05T03:12:21.824Z,30.17
2017-11-05T03:12:59.899Z,27.55
2017-11-05T03:13:38.037Z,28.05
2017-11-05T03:14:16.277Z,26.25
2017-11-05T03:14:54.557Z,27.92
2017-11-05T03:15:32.572Z,26.65
2017-11-05T03:16:11.050Z,29.25
2017-11-05T03:16:49.176Z,26.67
2017-11-05T03:17:27.247Z,25.83
2017-11-05T03:18:05.349Z,28.42
2017-11-05T03:18:44.175Z,27.27
2017-11-05T03:19:22.098Z,29.50
2017-11-05T03:19:59.763Z,26.67
2017-11-05T03:20:37.625Z,26.80
2017-11-05T03:21:15.866Z,26.17
2017-11-05T03:21:54.058Z,28.35
2017-11-05T03:22:32.195Z,26.48
2017-11-05T03:23:10.432Z,27.42
2017-11-05T03:23:48.585Z,25.88
2017-11-05T03:24:26.648Z,27.83
2017-11-05T03:25:04.803Z,25.42
2017-11-05T03:25:42.820Z,27.98
2017-11-05T03:26:21.210Z,28.23
2017-11-05T03:26:59.579Z,26.12
2017-11-05T03:27:37.802Z,27.80
2017-11-05T03:28:15.817Z,26.45
2017-11-05T03:28:54.023Z,26.62
2017-11-05T03:29:31.707Z,27.77
2017-11-05T03:30:10.043Z,27.70
2017-11-05T03:30:48.185Z,28.00
2017-11-05T03:31:26.505Z,27.87
2017-11-05T03:32:04.534Z,26.60
2017-11-05T03:32:42.373Z,27.75
2017-11-05T03:33:20.599Z,28.02
2017-11-05T03:33:58.938Z,26.87
2017-11-05T03:34:35.867Z,27.52
2017-11-05T03:35:14.161Z,27.20
2017-11-05T03:35:52.156Z,27.85
2017-11-05T03:36:30.653Z,27.80
2017-11-05T03:37:08.747Z,28.75
2017-11-05T03:37:46.837Z,25.70
2017-11-05T03:38:25.074Z,26.15
2017-11-05T03:39:03.190Z,27.85
2017-11-05T03:39:41.296Z,26.95
2017-11-05T03:40:19.428Z,27.27
2017-11-05T03:40:56.152Z,26.20
2017-11-05T03:41:33.239Z,26.58
2017-11-05T03:42:09.659Z,26.95
2017-11-05T03:42:44.980Z,26.77
2017-11-05T03:43:20.300Z,26.55
2017-11-05T03:43:55.830Z,28.15
2017-11-05T03:44:31.879Z,25.60
2017-11-05T03:45:07.208Z,26.77
2017-11-05T03:45:42.747Z,27.00
2017-11-05T03:46:17.556Z,26.58
2017-11-05T03:46:53.394Z,26.60
2017-11-05T03:47:28.925Z,27.25
2017-11-05T03:48:04.256Z,26.50
2017-11-05T03:48:39.701Z,25.88
2017-11-05T03:49:14.808Z,27.23
2017-11-05T03:49:49.726Z,27.85
2017-11-05T03:50:25.158Z,26.98
2017-11-05T03:51:00.590Z,27.83
2017-11-05T03:51:36.021Z,27.25
2017-11-05T03:52:11.552Z,26.70
2017-11-05T03:52:47.908Z,25.80
2017-11-05T03:53:23.338Z,27.37
2017-11-05T03:53:58.256Z,26.75
2017-11-05T03:54:33.280Z,27.48
2017-11-05T03:55:08.193Z,28.08
2017-11-05T03:55:43.014Z,27.08
2017-11-05T03:56:18.137Z,26.67
2017-11-05T03:56:52.948Z,26.45
2017-11-05T03:57:28.675Z,26.62
2017-11-05T03:58:03.649Z,26.80
2017-11-05T03:58:39.882Z,27.75
2017-11-05T03:59:14.975Z,26.67
2017-11-05T03:59:50.411Z,28.77
2017-11-05T04:00:25.533Z,28.25
2017-11-05T04:01:00.656Z,27.73
2017-11-05T04:01:35.578Z,27.15
2017-11-05T04:02:11.362Z,29.20
2017-11-05T04:02:46.542Z,27.27
2017-11-05T04:03:21.663Z,25.98
2017-11-05T04:03:57.985Z,26.90
2017-11-05T04:04:33.345Z,27.73
2017-11-05T04:05:08.195Z,26.67
2017-11-05T04:05:43.289Z,26.58
2017-11-05T04:06:19.128Z,26.95
2017-11-05T04:06:54.064Z,26.80
2017-11-05T04:07:29.374Z,28.80
2017-11-05T04:08:04.274Z,26.77
2017-11-05T04:08:39.216Z,27.00
2017-11-05T04:09:14.535Z,27.67
2017-11-05T04:09:50.683Z,26.83
2017-11-05T04:10:25.649Z,27.52
2017-11-05T04:11:01.854Z,26.87
2017-11-05T04:11:37.178Z,27.75
2017-11-05T04:12:12.205Z,26.73
2017-11-05T04:12:47.711Z,26.55
2017-11-05T04:13:23.578Z,26.85
2017-11-05T04:13:59.006Z,27.70
2017-11-05T04:14:34.438Z,26.85
2017-11-05T04:15:10.685Z,27.62
2017-11-05T04:15:46.630Z,27.77
2017-11-05T04:16:21.349Z,26.60
2017-11-05T04:16:56.675Z,26.20
2017-11-05T04:17:31.999Z,26.90
2017-11-05T04:18:07.071Z,27.02
2017-11-05T04:18:41.815Z,27.20
2017-11-05T04:19:17.066Z,28.08
2017-11-05T04:19:52.392Z,25.58
2017-11-05T04:20:27.826Z,27.27
2017-11-05T04:21:03.153Z,27.20
2017-11-05T04:21:38.069Z,26.40
2017-11-05T04:22:14.332Z,28.30
2017-11-05T04:22:49.339Z,27.30
2017-11-05T04:23:24.157Z,27.33
2017-11-05T04:23:58.870Z,27.90
2017-11-05T04:24:33.588Z,27.40
2017-11-05T04:25:08.089Z,27.10
2017-11-05T04:25:42.806Z,27.58
2017-11-05T04:26:17.705Z,26.10
2017-11-05T04:26:52.644Z,26.50
2017-11-05T04:27:27.255Z,27.00
2017-11-05T04:28:01.971Z,26.95
2017-11-05T04:28:36.584Z,25.90
2017-11-05T04:29:12.010Z,26.92
2017-11-05T04:29:46.520Z,26.60
2017-11-05T04:30:21.135Z,26.05
2017-11-05T04:30:56.136Z,26.15
2017-11-05T04:31:30.869Z,26.70
2017-11-05T04:32:05.910Z,26.62
2017-11-05T04:32:40.889Z,26.25
2017-11-05T04:33:15.830Z,26.65
2017-11-05T04:33:50.644Z,26.35
2017-11-05T04:34:25.566Z,27.25
2017-11-05T04:35:00.227Z,26.50
2017-11-05T04:35:34.843Z,24.60
2017-11-05T04:36:09.498Z,25.85
2017-11-05T04:36:44.109Z,26.98
2017-11-05T04:37:18.724Z,25.55
2017-11-05T04:37:53.947Z,26.80
2017-11-05T04:38:28.688Z,25.50
2017-11-05T04:39:03.178Z,26.20
2017-11-05T04:39:37.883Z,25.35
2017-11-05T04:40:12.905Z,26.45
2017-11-05T04:40:48.039Z,26.65
2017-11-05T04:41:22.641Z,27.77
2017-11-05T04:41:57.136Z,25.58
2017-11-05T04:42:31.761Z,26.55
2017-11-05T04:43:06.475Z,26.45
2017-11-05T04:43:41.498Z,27.75
2017-11-05T04:44:16.080Z,26.12
2017-11-05T04:44:51.130Z,26.40
2017-11-05T04:45:25.818Z,25.48
2017-11-05T04:46:00.558Z,27.15
2017-11-05T04:46:35.377Z,27.73
2017-11-05T04:47:10.296Z,25.35
2017-11-05T04:47:44.765Z,27.80
2017-11-05T04:48:19.316Z,27.48
2017-11-05T04:48:53.921Z,27.23
2017-11-05T04:49:28.426Z,26.48
2017-11-05T04:50:03.449Z,27.77
2017-11-05T04:50:38.323Z,26.05
2017-11-05T04:51:12.986Z,25.58
2017-11-05T04:51:47.565Z,24.67
2017-11-05T04:52:22.208Z,24.67
2017-11-05T04:52:57.211Z,26.75
2017-11-05T04:53:31.942Z,26.48
2017-11-05T04:54:06.961Z,26.45
2017-11-05T04:54:41.458Z,25.62
2017-11-05T04:55:16.326Z,26.20
2017-11-05T04:55:50.897Z,26.12
2017-11-05T04:56:25.351Z,26.87
2017-11-05T04:57:00.019Z,25.83
2017-11-05T04:57:34.525Z,25.37
2017-11-05T04:58:09.763Z,24.95
2017-11-05T04:58:44.160Z,26.40
2017-11-05T04:59:18.794Z,26.00
2017-11-05T04:59:53.585Z,26.73
2017-11-05T05:00:28.713Z,25.30
2017-11-05T05:01:03.427Z,25.90
2017-11-05T05:01:38.445Z,26.12
2017-11-05T05:02:13.162Z,25.50
2017-11-05T05:02:47.769Z,26.90
2017-11-05T05:03:22.262Z,27.13
2017-11-05T05:03:57.007Z,24.85
2017-11-05T05:04:31.706Z,25.92
2017-11-05T05:05:06.395Z,26.58
2017-11-05T05:05:41.279Z,27.08
2017-11-05T05:06:16.052Z,27.50
2017-11-05T05:06:51.074Z,26.60
2017-11-05T05:07:25.787Z,27.58
2017-11-05T05:08:00.606Z,26.15
2017-11-05T05:08:35.624Z,26.98
2017-11-05T05:09:10.124Z,29.20
2017-11-05T05:09:44.574Z,26.12
2017-11-05T05:10:19.013Z,25.75
2017-11-05T05:10:53.817Z,27.37
2017-11-05T05:11:28.252Z,26.12
2017-11-05T05:12:02.709Z,27.87
2017-11-05T05:12:37.154Z,27.95
2017-11-05T05:13:11.766Z,26.25
2017-11-05T05:13:46.213Z,27.25
2017-11-05T05:14:20.660Z,26.02
2017-11-05T05:14:55.097Z,26.62
2017-11-05T05:15:29.529Z,27.70
2017-11-05T05:16:04.320Z,27.73
2017-11-05T05:16:38.754Z,26.98
2017-11-05T05:17:13.228Z,26.70
2017-11-05T05:17:47.685Z,28.70
2017-11-05T05:18:22.178Z,27.85
2017-11-05T05:18:56.995Z,27.05
2017-11-05T05:19:31.450Z,27.02
2017-11-05T05:20:05.919Z,26.85
2017-11-05T05:20:40.384Z,26.60
2017-11-05T05:21:15.849Z,26.58
2017-11-05T05:21:50.292Z,27.40
2017-11-05T05:22:25.087Z,27.45
2017-11-05T05:22:59.883Z,27.52
2017-11-05T05:23:34.360Z,27.00
2017-11-05T05:24:08.854Z,29.25
2017-11-05T05:24:43.663Z,26.62
2017-11-05T05:25:18.135Z,28.87
2017-11-05T05:25:52.601Z,28.92
2017-11-05T05:26:27.108Z,27.10
2017-11-05T05:27:03.956Z,28.73
2017-11-05T05:27:41.193Z,28.48
2017-11-05T05:28:18.706Z,28.90
2017-11-05T05:28:53.295Z,30.12
2017-11-05T05:29:27.674Z,29.85
2017-11-05T05:30:02.027Z,29.20
2017-11-05T05:30:36.381Z,26.55
2017-11-05T05:31:10.760Z,28.85
2017-11-05T05:31:45.138Z,28.90
2017-11-05T05:32:19.496Z,29.12
2017-11-05T05:32:53.915Z,30.15
2017-11-05T05:33:28.310Z,29.67
2017-11-05T05:34:02.683Z,28.95
2017-11-05T05:34:37.043Z,28.52
2017-11-05T05:35:11.755Z,30.90
2017-11-05T05:35:46.151Z,29.48
2017-11-05T05:36:20.519Z,28.25
2017-11-05T05:36:55.184Z,29.40
2017-11-05T05:37:29.535Z,28.48
2017-11-05T05:38:03.920Z,29.90
2017-11-05T05:38:38.286Z,30.30
2017-11-05T05:39:12.651Z,29.05
2017-11-05T05:39:47.023Z,29.30
2017-11-05T05:40:21.399Z,28.85
2017-11-05T05:40:56.128Z,30.50
2017-11-05T05:41:30.492Z,29.10
2017-11-05T05:42:04.890Z,28.70
2017-11-05T05:42:39.256Z,29.70
2017-11-05T05:43:13.627Z,29.17
2017-11-05T05:43:48.017Z,30.92
2017-11-05T05:44:22.383Z,31.23
2017-11-05T05:44:56.762Z,30.15
2017-11-05T05:45:31.135Z,30.45
2017-11-05T05:46:05.492Z,29.92
2017-11-05T05:46:39.859Z,30.58
2017-11-05T05:47:14.256Z,30.62
2017-11-05T05:47:48.624Z,29.90
2017-11-05T05:48:22.800Z,30.15
2017-11-05T05:48:57.181Z,30.17
2017-11-05T05:49:31.557Z,30.60
2017-11-05T05:50:06.263Z,30.20
2017-11-05T05:50:40.987Z,29.35
2017-11-05T05:51:15.362Z,30.45
2017-11-05T05:51:49.728Z,32.08
2017-11-05T05:52:24.124Z,30.60
2017-11-05T05:52:58.511Z,30.55
2017-11-05T05:53:32.874Z,30.92
2017-11-05T05:54:07.243Z,31.95
2017-11-05T05:54:41.619Z,30.30
2017-11-05T05:55:15.994Z,31.55
2017-11-05T05:55:50.378Z,29.30
2017-11-05T05:56:25.113Z,30.55
2017-11-05T05:56:59.488Z,30.77
2017-11-05T05:57:33.898Z,32.20
2017-11-05T05:58:08.271Z,30.30
2017-11-05T05:58:42.635Z,31.77
2017-11-05T05:59:16.990Z,32.55
2017-11-05T05:59:51.448Z,30.92
2017-11-05T06:00:25.828Z,30.65
2017-11-05T06:01:00.206Z,32.05
2017-11-05T06:01:34.609Z,33.88
2017-11-05T06:02:08.986Z,31.77
2017-11-05T06:02:43.693Z,32.20
2017-11-05T06:03:18.058Z,31.90
2017-11-05T06:03:52.439Z,31.90
2017-11-05T06:04:27.167Z,31.67
2017-11-05T06:05:01.794Z,31.83
2017-11-05T06:05:36.170Z,31.35
2017-11-05T06:06:10.530Z,31.87
2017-11-05T06:06:44.913Z,31.37
2017-11-05T06:07:19.272Z,32.00
2017-11-05T06:07:53.982Z,32.25
2017-11-05T06:08:28.372Z,30.75
2017-11-05T06:09:03.139Z,30.30
2017-11-05T06:09:37.513Z,30.33
2017-11-05T06:10:11.897Z,30.73
2017-11-05T06:10:46.255Z,31.25
2017-11-05T06:11:20.968Z,31.48
2017-11-05T06:11:55.345Z,30.62
2017-11-05T06:12:29.703Z,30.35
2017-11-05T06:13:04.083Z,31.30
2017-11-05T06:13:38.452Z,30.45
2017-11-05T06:14:12.843Z,30.48
2017-11-05T06:14:47.199Z,30.67
2017-11-05T06:15:21.555Z,31.52
2017-11-05T06:15:55.919Z,32.28
2017-11-05T06:16:30.289Z,31.90
2017-11-05T06:17:04.643Z,31.52
2017-11-05T06:17:39.019Z,30.23
2017-11-05T06:18:13.692Z,32.58
2017-11-05T06:18:48.071Z,31.92
2017-11-05T06:19:22.455Z,31.75
2017-11-05T06:19:56.828Z,31.85
2017-11-05T06:20:31.204Z,32.55
2017-11-05T06:21:05.575Z,32.05
2017-11-05T06:21:39.935Z,31.30
2017-11-05T06:22:14.297Z,31.20
2017-11-05T06:22:48.698Z,31.58
2017-11-05T06:23:23.090Z,32.60
2017-11-05T06:23:57.465Z,32.95
2017-11-05T06:24:31.831Z,32.35
2017-11-05T06:25:06.195Z,31.58
2017-11-05T06:25:40.568Z,33.40
2017-11-05T06:26:14.944Z,31.05
2017-11-05T06:26:49.300Z,31.55
2017-11-05T06:27:23.662Z,31.12
2017-11-05T06:27:58.027Z,31.27
2017-11-05T06:28:32.421Z,33.15
2017-11-05T06:29:06.793Z,34.28
2017-11-05T06:29:41.159Z,32.58
2017-11-05T06:30:15.532Z,32.17
2017-11-05T06:30:49.912Z,31.95
2017-11-05T06:31:24.282Z,32.60
2017-11-05T06:31:58.714Z,31.20
2017-11-05T06:32:33.076Z,31.40
2017-11-05T06:33:07.447Z,29.42
2017-11-05T06:33:41.842Z,31.87
2017-11-05T06:34:16.588Z,32.38
2017-11-05T06:34:50.960Z,31.70
2017-11-05T06:35:25.332Z,33.20
2017-11-05T06:35:59.536Z,31.35
2017-11-05T06:36:33.916Z,32.10
2017-11-05T06:37:08.281Z,31.05
2017-11-05T06:37:42.644Z,31.92
2017-11-05T06:38:17.034Z,30.62
2017-11-05T06:38:51.545Z,30.83
2017-11-05T06:39:25.906Z,30.37
2017-11-05T06:40:00.278Z,31.85
2017-11-05T06:40:34.674Z,30.48
2017-11-05T06:41:09.388Z,31.05
2017-11-05T06:41:43.777Z,31.50
2017-11-05T06:42:18.144Z,30.17
2017-11-05T06:42:52.512Z,30.90
2017-11-05T06:43:26.899Z,30.50
2017-11-05T06:44:01.326Z,29.20
2017-11-05T06:44:35.737Z,30.55
2017-11-05T06:45:10.120Z,29.17
2017-11-05T06:45:44.488Z,30.27
2017-11-05T06:46:18.853Z,29.12
2017-11-05T06:46:53.221Z,29.98
2017-11-05T06:47:27.420Z,30.77
2017-11-05T06:48:02.141Z,29.85
2017-11-05T06:48:36.514Z,29.08
2017-11-05T06:49:11.293Z,30.65
2017-11-05T06:49:45.660Z,30.42
2017-11-05T06:50:20.074Z,29.25
2017-11-05T06:50:54.447Z,28.20
2017-11-05T06:51:28.872Z,28.87
2017-11-05T06:52:03.232Z,30.25
2017-11-05T06:52:37.939Z,27.95
2017-11-05T06:53:12.309Z,28.55
2017-11-05T06:53:47.020Z,29.55
2017-11-05T06:54:21.432Z,29.00
2017-11-05T06:54:55.814Z,28.42
2017-11-05T06:55:30.528Z,30.90
2017-11-05T06:56:04.894Z,29.75
2017-11-05T06:56:39.254Z,29.00
2017-11-05T06:57:13.608Z,29.23
2017-11-05T06:57:47.973Z,27.20
2017-11-05T06:58:22.347Z,28.92
2017-11-05T06:58:56.732Z,27.70
2017-11-05T06:59:31.123Z,28.00
2017-11-05T07:00:05.494Z,28.05
2017-11-05T07:00:39.876Z,28.90
2017-11-05T07:01:14.239Z,29.45
2017-11-05T07:01:48.624Z,29.67
2017-11-05T07:02:22.985Z,29.17
2017-11-05T07:02:57.434Z,28.17
2017-11-05T07:03:31.810Z,29.20
2017-11-05T07:04:06.173Z,29.12
2017-11-05T07:04:40.926Z,30.23
2017-11-05T07:05:15.292Z,30.37
2017-11-05T07:05:50.011Z,30.00
2017-11-05T07:06:24.386Z,28.40
2017-11-05T07:06:58.758Z,26.92
2017-11-05T07:07:33.124Z,29.40
2017-11-05T07:08:07.545Z,27.35
2017-11-05T07:08:41.935Z,27.15
2017-11-05T07:09:16.319Z,28.77
2017-11-05T07:09:51.660Z,29.23
2017-11-05T07:10:26.028Z,28.50
2017-11-05T07:11:00.384Z,28.70
2017-11-05T07:11:34.754Z,27.73
2017-11-05T07:12:09.152Z,29.20
2017-11-05T07:12:43.509Z,27.08
2017-11-05T07:13:17.878Z,28.92
2017-11-05T07:13:52.240Z,28.02
2017-11-05T07:14:26.668Z,27.25
2017-11-05T07:15:01.071Z,27.13
2017-11-05T07:15:35.436Z,27.33
2017-11-05T07:16:09.800Z,28.17
2017-11-05T07:16:44.164Z,26.20
2017-11-05T07:17:18.552Z,26.37
2017-11-05T07:17:52.927Z,28.17
2017-11-05T07:18:27.360Z,26.83
2017-11-05T07:19:02.093Z,28.40
2017-11-05T07:19:36.692Z,28.27
2017-11-05T07:20:11.092Z,27.58
2017-11-05T07:20:45.582Z,26.70
2017-11-05T07:21:19.964Z,29.15
2017-11-05T07:21:54.331Z,27.05
2017-11-05T07:22:28.689Z,26.83
2017-11-05T07:23:03.081Z,27.35
2017-11-05T07:23:37.440Z,28.83
2017-11-05T07:24:11.807Z,28.42
2017-11-05T07:24:46.182Z,26.37
2017-11-05T07:25:20.574Z,26.40
2017-11-05T07:25:54.936Z,26.12
2017-11-05T07:26:29.330Z,27.10
2017-11-05T07:27:03.705Z,26.87
2017-11-05T07:27:38.071Z,27.40
2017-11-05T07:28:12.451Z,26.58
2017-11-05T07:28:47.905Z,26.60
2017-11-05T07:29:22.292Z,26.17
2017-11-05T07:29:56.668Z,25.70
2017-11-05T07:30:31.407Z,27.02
2017-11-05T07:31:05.786Z,26.27
2017-11-05T07:31:40.147Z,27.60
2017-11-05T07:32:14.507Z,27.73
2017-11-05T07:32:48.884Z,26.17
2017-11-05T07:33:23.256Z,27.08
2017-11-05T07:33:57.612Z,25.60
2017-11-05T07:34:32.000Z,25.90
2017-11-05T07:35:06.360Z,27.85
2017-11-05T07:35:40.759Z,26.10
2017-11-05T07:36:15.141Z,26.95
2017-11-05T07:36:49.505Z,25.15
2017-11-05T07:37:23.868Z,25.02
2017-11-05T07:37:58.251Z,27.17
2017-11-05T07:38:32.962Z,26.77
2017-11-05T07:39:07.336Z,26.27
2017-11-05T07:39:41.712Z,25.27
2017-11-05T07:40:16.076Z,26.75
2017-11-05T07:40:50.470Z,25.88
2017-11-05T07:41:24.835Z,25.35
2017-11-05T07:41:59.305Z,24.55
2017-11-05T07:42:33.693Z,25.17